ETOU/WIE METAR and TAF weather

Enter ICAO airport designator
Station Type Date Time Source
ETOU METAR 2020/08/14 15:56 UTC NOAA

ETOU 141556Z 00000KT 9999 SCT020 SCT060 21/20 A2994 RMK AO2A RAE47 SLP137 P0002 T02070200 $


Station Type Date Time Source
ETOU Decoded METAR 2020/08/14 15:56 UTC NOAA

Wiesbaden, Germany (ETOU) 50-03N 008-20E
Aug 14, 2020 - 11:56 AM EDT / 2020.08.14 1556 UTC
Wind: Calm:0
Visibility: greater than 7 mile(s):0
Sky conditions: partly cloudy
Precipitation last hour: 0.02 inches
Temperature: 69.3 F (20.7 C)
Dew Point: 68.0 F (20.0 C)
Relative Humidity: 95%
Pressure (altimeter): 29.94 in. Hg (1013 hPa)
ob: ETOU 141556Z 00000KT 9999 SCT020 SCT060 21/20 A2994 RMK AO2A RAE47 SLP137 P0002 T02070200
cycle: 16

Station Type Date Time Source
ETOU TAF 2020/08/14 12:09 UTC NOAA

TAF TAF ETOU 141203Z 1412/1518 16010G15KT 9999 VCTS SCT100 BKN150CB QNH2993INS
TEMPO 1412/1416 20015G25KT 8000 -TSRA BKN060CB OVC120
BECMG 1418/1419 25005KT 9999 NSW SCT080 QNH2991INS
BECMG 1511/1512 25010G15KT 9999 VCTS BKN050CB QNH2995INS TX31/1414Z TN22/1504Z

Example: see airport list